createdAt,value
2022-11-28T00:00:46.253Z,3.00
2022-11-28T00:03:31.292Z,3.45
2022-11-28T00:06:04.188Z,3.00
2022-11-28T00:08:35.102Z,3.47
2022-11-28T00:11:12.696Z,3.40
2022-11-28T00:13:45.995Z,3.40
2022-11-28T00:16:21.851Z,3.38
2022-11-28T00:18:50.271Z,3.53
2022-11-28T00:21:18.389Z,3.45
2022-11-28T00:23:46.337Z,3.83
2022-11-28T00:26:18.618Z,4.47
2022-11-28T00:28:54.672Z,4.32
2022-11-28T00:31:32.122Z,3.42
2022-11-28T00:34:02.214Z,3.78
2022-11-28T00:36:29.832Z,2.42
2022-11-28T00:39:03.141Z,3.90
2022-11-28T00:41:37.208Z,5.38
2022-11-28T00:44:07.028Z,3.80
2022-11-28T00:46:37.795Z,3.83
2022-11-28T00:49:10.523Z,3.80
2022-11-28T00:51:37.620Z,4.63
2022-11-28T00:54:08.440Z,4.45
2022-11-28T00:56:42.618Z,4.13
2022-11-28T00:59:12.389Z,4.43
2022-11-28T01:01:41.320Z,0.75
2022-11-28T01:04:10.479Z,4.25
2022-11-28T01:06:42.269Z,4.80
2022-11-28T01:09:19.361Z,4.35
2022-11-28T01:11:46.974Z,2.53
2022-11-28T01:14:18.394Z,4.03
2022-11-28T01:17:15.304Z,3.10
2022-11-28T01:19:45.050Z,4.82
2022-11-28T01:22:15.851Z,4.82
2022-11-28T01:24:42.956Z,3.70
2022-11-28T01:27:13.580Z,4.85
2022-11-28T01:29:44.158Z,3.72
2022-11-28T01:32:13.033Z,4.05
2022-11-28T01:34:45.873Z,4.68
2022-11-28T01:37:16.234Z,3.83
2022-11-28T01:39:49.696Z,3.42
2022-11-28T01:42:21.715Z,3.90
2022-11-28T01:44:48.594Z,3.47
2022-11-28T01:47:23.264Z,2.45
2022-11-28T01:50:00.092Z,4.15
2022-11-28T01:52:30.521Z,2.85
2022-11-28T01:55:00.595Z,1.85
2022-11-28T01:57:31.684Z,2.20
2022-11-28T02:00:07.042Z,2.75
2022-11-28T02:02:39.218Z,3.38
2022-11-28T02:05:06.415Z,3.13
2022-11-28T02:07:34.889Z,2.53
2022-11-28T02:10:07.133Z,2.47
2022-11-28T02:12:40.273Z,1.45
2022-11-28T02:15:11.413Z,2.50
2022-11-28T02:17:56.684Z,2.25
2022-11-28T02:20:45.704Z,3.40
2022-11-28T02:23:21.399Z,2.85
2022-11-28T02:25:57.932Z,3.38
2022-11-28T02:28:24.776Z,2.58
2022-11-28T02:31:10.105Z,3.13
2022-11-28T02:33:46.149Z,3.00
2022-11-28T02:36:38.335Z,2.78
2022-11-28T02:39:19.633Z,1.92
2022-11-28T02:42:11.702Z,2.92
2022-11-28T02:44:43.669Z,2.15
2022-11-28T02:47:35.077Z,1.83
2022-11-28T02:50:15.521Z,2.67
2022-11-28T02:52:47.122Z,3.03
2022-11-28T02:55:18.541Z,2.85
2022-11-28T02:57:58.524Z,2.72
2022-11-28T03:00:36.134Z,2.35
2022-11-28T03:03:06.282Z,2.63
2022-11-28T03:05:33.266Z,3.08
2022-11-28T03:08:10.733Z,2.15
2022-11-28T03:10:50.527Z,2.15
2022-11-28T03:13:28.927Z,3.45
2022-11-28T03:16:08.024Z,2.13
2022-11-28T03:18:39.845Z,3.85
2022-11-28T03:21:18.290Z,1.88
2022-11-28T03:23:48.528Z,3.63
2022-11-28T03:26:18.276Z,2.58
2022-11-28T03:29:14.384Z,1.45
2022-11-28T03:31:48.147Z,1.10
2022-11-28T03:34:16.097Z,1.33
2022-11-28T03:36:58.417Z,1.60
2022-11-28T03:39:36.997Z,2.53
2022-11-28T03:42:10.921Z,1.70
2022-11-28T03:44:41.214Z,2.58
2022-11-28T03:47:09.075Z,2.05
2022-11-28T03:49:40.128Z,1.30
2022-11-28T03:52:22.089Z,2.72
2022-11-28T03:54:53.316Z,1.98
2022-11-28T03:57:33.392Z,2.22
2022-11-28T04:00:02.802Z,2.17
2022-11-28T04:02:36.158Z,2.20
2022-11-28T04:05:15.038Z,1.85
2022-11-28T04:07:54.368Z,1.83
2022-11-28T04:10:25.702Z,2.45
2022-11-28T04:12:59.642Z,1.40
2022-11-28T04:15:29.364Z,1.80
2022-11-28T04:18:03.591Z,2.15
2022-11-28T04:20:37.176Z,1.92
2022-11-28T04:23:11.491Z,1.98
2022-11-28T04:25:41.917Z,2.28
2022-11-28T04:28:18.564Z,2.35
2022-11-28T04:30:48.554Z,1.70
2022-11-28T04:33:19.921Z,2.20
2022-11-28T04:35:51.645Z,2.33
2022-11-28T04:38:26.489Z,2.00
2022-11-28T04:40:58.693Z,2.50
2022-11-28T04:43:34.083Z,2.17
2022-11-28T04:46:07.495Z,1.55
2022-11-28T04:48:40.165Z,2.47
2022-11-28T04:51:15.721Z,1.58
2022-11-28T04:54:03.285Z,1.77
2022-11-28T04:56:45.083Z,2.05
2022-11-28T04:59:13.524Z,2.00
2022-11-28T05:01:48.442Z,2.00
2022-11-28T05:04:22.593Z,2.10
2022-11-28T05:06:52.924Z,1.65
2022-11-28T05:09:19.991Z,1.50
2022-11-28T05:11:47.267Z,2.30
2022-11-28T05:14:14.593Z,1.65
2022-11-28T05:16:41.534Z,1.08
2022-11-28T05:19:12.605Z,1.88
2022-11-28T05:21:39.824Z,2.00
2022-11-28T05:24:10.390Z,2.28
2022-11-28T05:26:42.191Z,2.67
2022-11-28T05:29:11.555Z,1.58
2022-11-28T05:31:38.979Z,2.20
2022-11-28T05:34:06.011Z,2.38
2022-11-28T05:36:39.499Z,2.67
2022-11-28T05:39:09.803Z,2.55
2022-11-28T05:41:39.929Z,2.55
2022-11-28T05:44:12.366Z,2.60
2022-11-28T05:49:45.595Z,2.50
2022-11-28T05:52:16.097Z,2.22
2022-11-28T05:54:43.111Z,2.45
2022-11-28T05:57:15.357Z,3.13
2022-11-28T05:59:48.512Z,2.80
2022-11-28T06:02:16.728Z,2.00
2022-11-28T06:04:47.490Z,2.92
2022-11-28T06:07:19.239Z,2.85
2022-11-28T06:09:46.226Z,1.48
2022-11-28T06:12:13.625Z,3.55
2022-11-28T06:14:41.667Z,2.40
2022-11-28T06:17:11.360Z,2.90
2022-11-28T06:19:41.515Z,3.78
2022-11-28T06:22:08.613Z,3.17
2022-11-28T06:24:38.464Z,2.47
2022-11-28T06:27:08.586Z,2.83
2022-11-28T06:29:36.661Z,3.33
2022-11-28T06:32:06.486Z,2.95
2022-11-28T06:34:39.481Z,2.28
2022-11-28T06:37:07.393Z,2.53
2022-11-28T06:39:37.352Z,3.03
2022-11-28T06:42:10.620Z,2.85
2022-11-28T06:44:44.283Z,2.67
2022-11-28T06:47:14.976Z,2.70
2022-11-28T06:49:42.094Z,3.03
2022-11-28T06:52:09.648Z,2.95
2022-11-28T06:54:45.494Z,2.58
2022-11-28T06:57:19.398Z,3.38
2022-11-28T06:59:46.495Z,3.17
2022-11-28T07:02:16.270Z,2.90
2022-11-28T07:04:43.992Z,2.78
2022-11-28T07:07:16.082Z,3.63
2022-11-28T07:09:44.154Z,2.90
2022-11-28T07:12:14.157Z,3.30
2022-11-28T07:14:45.848Z,4.38
2022-11-28T07:17:12.838Z,4.13
2022-11-28T07:19:47.269Z,1.58
2022-11-28T07:22:18.115Z,2.33
2022-11-28T07:24:51.049Z,3.30
2022-11-28T07:27:18.694Z,3.80
2022-11-28T07:29:49.520Z,3.78
2022-11-28T07:32:22.722Z,3.92
2022-11-28T07:34:52.340Z,2.53
2022-11-28T07:37:19.739Z,3.85
2022-11-28T07:39:46.522Z,3.05
2022-11-28T07:42:13.421Z,3.83
2022-11-28T07:44:43.433Z,3.38
2022-11-28T07:47:16.203Z,4.03
2022-11-28T07:49:49.167Z,2.83
2022-11-28T07:52:19.853Z,3.42
2022-11-28T07:54:53.050Z,2.33
2022-11-28T07:57:20.053Z,3.42
2022-11-28T07:59:51.053Z,2.40
2022-11-28T08:02:18.310Z,4.90
2022-11-28T08:04:51.681Z,3.75
2022-11-28T08:07:25.543Z,3.63
2022-11-28T08:10:01.624Z,3.25
2022-11-28T08:12:28.399Z,4.07
2022-11-28T08:15:01.565Z,2.75
2022-11-28T08:20:25.142Z,3.88
2022-11-28T08:22:54.720Z,3.42
2022-11-28T08:25:24.378Z,3.45
2022-11-28T08:27:57.212Z,3.08
2022-11-28T08:30:26.730Z,1.75
2022-11-28T08:32:56.385Z,3.70
2022-11-28T08:35:26.504Z,1.92
2022-11-28T08:38:04.770Z,3.85
2022-11-28T08:40:35.051Z,2.78
2022-11-28T08:43:06.019Z,3.45
2022-11-28T08:45:33.817Z,1.52
2022-11-28T08:48:02.118Z,3.53
2022-11-28T08:50:31.885Z,4.63
2022-11-28T08:53:01.922Z,2.70
2022-11-28T08:55:39.151Z,2.83
2022-11-28T08:58:15.097Z,2.30
2022-11-28T09:00:45.410Z,3.70
2022-11-28T09:03:16.313Z,3.15
2022-11-28T09:05:46.527Z,3.83
2022-11-28T09:08:14.605Z,2.78
2022-11-28T09:10:42.469Z,2.00
2022-11-28T09:13:12.253Z,3.22
2022-11-28T09:15:49.998Z,2.97
2022-11-28T09:18:21.586Z,3.63
2022-11-28T09:20:52.958Z,1.80
2022-11-28T09:23:25.727Z,3.10
2022-11-28T09:25:55.905Z,3.72
2022-11-28T09:28:32.416Z,3.53
2022-11-28T09:31:07.107Z,3.45
2022-11-28T09:33:37.961Z,2.70
2022-11-28T09:36:11.852Z,2.28
2022-11-28T09:38:42.727Z,3.72
2022-11-28T09:41:19.015Z,3.83
2022-11-28T09:43:59.005Z,4.05
2022-11-28T09:46:29.064Z,3.13
2022-11-28T09:49:03.378Z,4.00
2022-11-28T09:51:56.609Z,2.22
2022-11-28T09:54:56.707Z,4.10
2022-11-28T09:57:35.252Z,2.53
2022-11-28T10:00:05.689Z,3.58
2022-11-28T10:02:39.624Z,3.38
2022-11-28T10:05:07.121Z,3.13
2022-11-28T10:07:37.195Z,3.00
2022-11-28T10:10:07.973Z,2.72
2022-11-28T10:12:44.278Z,2.95
2022-11-28T10:15:21.945Z,3.53
2022-11-28T10:18:06.759Z,4.03
2022-11-28T10:20:38.367Z,3.80
2022-11-28T10:23:24.382Z,3.58
2022-11-28T10:25:56.016Z,4.13
2022-11-28T10:28:26.580Z,3.80
2022-11-28T10:30:57.551Z,4.10
2022-11-28T10:33:40.357Z,4.43
2022-11-28T10:36:13.530Z,3.80
2022-11-28T10:38:43.503Z,4.32
2022-11-28T10:41:16.379Z,4.30
2022-11-28T10:43:57.898Z,3.90
2022-11-28T10:46:39.821Z,3.15
2022-11-28T10:49:24.982Z,4.53
2022-11-28T10:51:56.457Z,3.47
2022-11-28T10:54:41.452Z,3.00
2022-11-28T10:57:20.123Z,3.25
2022-11-28T11:00:19.118Z,1.05
2022-11-28T11:02:50.033Z,3.22
2022-11-28T11:05:22.629Z,4.88
2022-11-28T11:07:54.974Z,2.13
2022-11-28T11:10:29.670Z,4.38
2022-11-28T11:12:58.666Z,3.63
2022-11-28T11:15:30.248Z,3.28
2022-11-28T11:17:57.642Z,3.88
2022-11-28T11:20:31.756Z,2.92
2022-11-28T11:23:02.060Z,3.00
2022-11-28T11:25:31.552Z,2.83
2022-11-28T11:28:07.609Z,3.75
2022-11-28T11:30:38.987Z,3.05
2022-11-28T11:33:13.008Z,3.00
2022-11-28T11:35:47.317Z,3.15
2022-11-28T11:38:38.263Z,2.20
2022-11-28T11:41:27.952Z,3.13
2022-11-28T11:43:55.017Z,3.53
2022-11-28T11:46:28.759Z,2.95
2022-11-28T11:49:03.555Z,3.13
2022-11-28T11:51:39.131Z,3.42
2022-11-28T11:54:18.944Z,3.70
2022-11-28T11:56:47.309Z,3.30
2022-11-28T11:59:25.349Z,3.10
2022-11-28T12:02:02.923Z,1.80
2022-11-28T12:04:48.069Z,3.47
2022-11-28T12:07:23.719Z,1.50
2022-11-28T12:09:54.465Z,3.65
2022-11-28T12:12:30.944Z,3.53
2022-11-28T12:14:57.910Z,3.13
2022-11-28T12:17:54.500Z,2.92
2022-11-28T12:20:45.392Z,3.63
2022-11-28T12:23:21.353Z,3.67
2022-11-28T12:25:50.727Z,3.75
2022-11-28T12:28:36.316Z,3.88
2022-11-28T12:31:09.539Z,3.63
2022-11-28T12:33:45.558Z,0.80
2022-11-28T12:36:16.422Z,4.40
2022-11-28T12:38:53.397Z,5.28
2022-11-28T12:41:39.042Z,3.83
2022-11-28T12:44:24.367Z,1.30
2022-11-28T12:47:13.560Z,4.57
2022-11-28T12:49:46.261Z,2.70
2022-11-28T12:52:32.151Z,3.03
2022-11-28T12:55:04.926Z,3.63
2022-11-28T12:57:40.721Z,2.88
2022-11-28T13:00:23.293Z,3.45
2022-11-28T13:03:10.294Z,2.58
2022-11-28T13:05:49.313Z,3.97
2022-11-28T13:08:30.190Z,1.58
2022-11-28T13:11:15.533Z,4.35
2022-11-28T13:14:01.408Z,4.75
2022-11-28T13:16:29.577Z,4.63
2022-11-28T13:19:02.924Z,3.45
2022-11-28T13:21:29.985Z,3.85
2022-11-28T13:24:07.119Z,4.22
2022-11-28T13:26:39.362Z,5.03
2022-11-28T13:29:06.426Z,3.72
2022-11-28T13:31:39.406Z,3.00
2022-11-28T13:34:17.804Z,4.03
2022-11-28T13:40:12.823Z,4.85
2022-11-28T13:43:07.531Z,5.57
2022-11-28T13:45:42.166Z,3.97
2022-11-28T13:48:49.677Z,1.63
2022-11-28T13:51:26.946Z,3.60
2022-11-28T13:54:15.738Z,3.88
2022-11-28T13:56:45.677Z,3.28
2022-11-28T13:59:25.391Z,2.95
2022-11-28T14:02:01.580Z,3.40
2022-11-28T14:04:32.523Z,2.90
2022-11-28T14:07:08.276Z,4.47
2022-11-28T14:09:50.060Z,4.43
2022-11-28T14:12:17.163Z,2.47
2022-11-28T14:14:47.419Z,4.20
2022-11-28T14:17:29.389Z,4.32
2022-11-28T14:20:05.722Z,3.17
2022-11-28T14:22:43.416Z,3.47
2022-11-28T14:25:11.339Z,3.50
2022-11-28T14:30:38.867Z,3.13
2022-11-28T14:33:24.389Z,4.15
2022-11-28T14:35:51.520Z,4.57
2022-11-28T14:38:44.919Z,4.03
2022-11-28T14:41:14.439Z,4.22
2022-11-28T14:43:44.314Z,3.33
2022-11-28T14:46:19.737Z,2.88
2022-11-28T14:48:58.983Z,3.80
2022-11-28T14:51:47.680Z,3.40
2022-11-28T14:54:26.662Z,3.92
2022-11-28T14:56:59.828Z,4.15
2022-11-28T14:59:37.675Z,3.92
2022-11-28T15:02:11.052Z,3.72
2022-11-28T15:04:56.761Z,4.30
2022-11-28T15:07:32.818Z,3.20
2022-11-28T15:10:18.289Z,3.47
2022-11-28T15:12:52.201Z,3.47
2022-11-28T15:15:20.835Z,4.07
2022-11-28T15:17:52.622Z,3.72
2022-11-28T15:20:25.214Z,3.50
2022-11-28T15:22:54.889Z,3.70
2022-11-28T15:25:29.885Z,3.70
2022-11-28T15:27:57.320Z,3.45
2022-11-28T15:30:27.017Z,3.97
2022-11-28T15:32:59.445Z,3.33
2022-11-28T15:35:52.579Z,4.05
2022-11-28T15:38:23.124Z,3.80
2022-11-28T15:40:51.486Z,3.92
2022-11-28T15:43:19.192Z,4.05
2022-11-28T15:45:53.396Z,3.35
2022-11-28T15:48:39.763Z,4.15
2022-11-28T15:51:09.844Z,3.72
2022-11-28T15:53:43.758Z,4.30
2022-11-28T15:56:22.608Z,3.63
2022-11-28T15:58:56.050Z,3.72
2022-11-28T16:01:29.219Z,2.88
2022-11-28T16:04:12.594Z,4.30
2022-11-28T16:06:42.258Z,3.97
2022-11-28T16:09:26.521Z,2.53
2022-11-28T16:11:56.920Z,3.97
2022-11-28T16:14:35.290Z,4.47
2022-11-28T16:17:06.754Z,4.38
2022-11-28T16:19:48.602Z,4.40
2022-11-28T16:22:24.730Z,3.67
2022-11-28T16:24:56.412Z,4.18
2022-11-28T16:27:37.683Z,3.50
2022-11-28T16:30:24.677Z,3.45
2022-11-28T16:32:55.771Z,3.20
2022-11-28T16:35:35.608Z,3.83
2022-11-28T16:38:21.100Z,3.97
2022-11-28T16:40:52.619Z,3.72
2022-11-28T16:43:23.127Z,4.13
2022-11-28T16:46:00.496Z,1.00
2022-11-28T16:48:40.438Z,4.43
2022-11-28T16:51:13.258Z,3.13
2022-11-28T16:53:48.285Z,3.90
2022-11-28T16:56:26.137Z,4.03
2022-11-28T16:59:03.250Z,3.65
2022-11-28T17:01:34.321Z,4.13
2022-11-28T17:04:05.503Z,3.90
2022-11-28T17:06:38.780Z,4.72
2022-11-28T17:09:10.408Z,3.70
2022-11-28T17:11:43.094Z,4.47
2022-11-28T17:14:14.108Z,3.38
2022-11-28T17:16:44.427Z,3.45
2022-11-28T17:19:11.691Z,4.88
2022-11-28T17:21:44.199Z,4.32
2022-11-28T17:24:24.326Z,4.32
2022-11-28T17:26:52.119Z,4.72
2022-11-28T17:29:19.435Z,4.43
2022-11-28T17:31:49.922Z,4.75
2022-11-28T17:34:21.952Z,4.28
2022-11-28T17:36:49.278Z,4.60
2022-11-28T17:39:16.730Z,4.10
2022-11-28T17:41:45.383Z,4.63
2022-11-28T17:44:27.798Z,3.88
2022-11-28T17:46:56.517Z,4.68
2022-11-28T17:49:25.752Z,4.38
2022-11-28T17:51:54.100Z,4.38
2022-11-28T17:54:22.997Z,3.90
2022-11-28T17:56:50.554Z,4.93
2022-11-28T17:59:21.487Z,4.30
2022-11-28T18:01:56.450Z,5.60
2022-11-28T18:04:26.491Z,4.50
2022-11-28T18:06:59.241Z,3.38
2022-11-28T18:09:29.577Z,3.92
2022-11-28T18:11:56.683Z,4.00
2022-11-28T18:14:23.732Z,3.92
2022-11-28T18:16:54.326Z,4.38
2022-11-28T18:19:21.390Z,4.22
2022-11-28T18:21:51.708Z,4.50
2022-11-28T18:24:21.669Z,4.60
2022-11-28T18:26:50.373Z,4.68
2022-11-28T18:29:17.456Z,4.65
2022-11-28T18:31:44.495Z,4.15
2022-11-28T18:34:18.746Z,4.93
2022-11-28T18:36:49.018Z,3.72
2022-11-28T18:39:19.320Z,5.50
2022-11-28T18:41:51.451Z,5.35
2022-11-28T18:44:22.323Z,4.03
2022-11-28T18:46:49.493Z,4.88
2022-11-28T18:49:19.247Z,4.70
2022-11-28T18:51:49.304Z,4.20
2022-11-28T18:54:21.519Z,4.43
2022-11-28T18:56:49.218Z,4.95
2022-11-28T18:59:19.136Z,4.72
2022-11-28T19:01:49.505Z,4.47
2022-11-28T19:04:22.372Z,5.07
2022-11-28T19:06:51.897Z,4.68
2022-11-28T19:09:22.743Z,4.05
2022-11-28T19:11:49.896Z,3.97
2022-11-28T19:14:18.380Z,4.00
2022-11-28T19:16:49.777Z,4.93
2022-11-28T19:19:19.356Z,5.03
2022-11-28T19:21:49.172Z,5.22
2022-11-28T19:24:16.322Z,4.82
2022-11-28T19:26:48.737Z,5.65
2022-11-28T19:29:19.340Z,4.45
2022-11-28T19:31:54.325Z,4.82
2022-11-28T19:34:24.844Z,5.18
2022-11-28T19:36:55.981Z,3.72
2022-11-28T19:39:24.544Z,4.10
2022-11-28T19:41:57.664Z,4.50
2022-11-28T19:44:29.569Z,4.78
2022-11-28T19:46:59.448Z,4.90
2022-11-28T19:49:29.572Z,4.32
2022-11-28T19:51:59.802Z,5.38
2022-11-28T19:54:30.283Z,4.50
2022-11-28T19:56:57.981Z,4.03
2022-11-28T19:59:29.204Z,5.05
2022-11-28T20:01:56.399Z,4.88
2022-11-28T20:04:23.499Z,5.00
2022-11-28T20:07:00.013Z,5.10
2022-11-28T20:09:27.008Z,6.22
2022-11-28T20:11:54.123Z,4.93
2022-11-28T20:14:21.469Z,4.68
2022-11-28T20:16:54.731Z,5.38
2022-11-28T20:19:23.253Z,5.60
2022-11-28T20:22:01.652Z,5.25
2022-11-28T20:24:30.573Z,5.25
2022-11-28T20:27:02.134Z,6.28
2022-11-28T20:29:29.006Z,5.53
2022-11-28T20:32:02.542Z,4.93
2022-11-28T20:34:33.008Z,5.45
2022-11-28T20:37:03.380Z,5.57
2022-11-28T20:39:33.581Z,5.93
2022-11-28T20:42:05.415Z,5.30
2022-11-28T20:44:38.932Z,5.30
2022-11-28T20:47:10.858Z,4.22
2022-11-28T20:49:38.643Z,4.85
2022-11-28T20:52:06.761Z,4.72
2022-11-28T20:54:41.268Z,4.78
2022-11-28T20:57:21.273Z,3.33
2022-11-28T20:59:53.266Z,5.28
2022-11-28T21:02:20.641Z,4.40
2022-11-28T21:04:48.216Z,5.20
2022-11-28T21:07:21.725Z,4.43
2022-11-28T21:09:55.443Z,5.93
2022-11-28T21:12:30.228Z,5.28
2022-11-28T21:15:00.658Z,4.80
2022-11-28T21:17:30.508Z,6.10
2022-11-28T21:19:57.538Z,5.25
2022-11-28T21:22:24.534Z,4.75
2022-11-28T21:24:57.225Z,5.85
2022-11-28T21:27:28.494Z,5.35
2022-11-28T21:29:58.618Z,6.55
2022-11-28T21:32:31.458Z,4.95
2022-11-28T21:35:04.877Z,4.38
2022-11-28T21:37:34.332Z,4.85
2022-11-28T21:40:11.677Z,5.57
2022-11-28T21:42:38.734Z,5.82
2022-11-28T21:45:12.041Z,5.53
2022-11-28T21:47:43.322Z,5.53
2022-11-28T21:50:17.562Z,4.25
2022-11-28T21:52:50.216Z,5.40
2022-11-28T21:55:20.412Z,4.63
2022-11-28T21:57:47.940Z,5.90
2022-11-28T22:00:45.616Z,6.28
2022-11-28T22:03:12.517Z,4.53
2022-11-28T22:05:45.082Z,5.45
2022-11-28T22:08:16.255Z,5.07
2022-11-28T22:10:46.223Z,6.10
2022-11-28T22:13:21.336Z,5.22
2022-11-28T22:15:50.553Z,3.70
2022-11-28T22:18:24.016Z,4.82
2022-11-28T22:20:53.228Z,5.40
2022-11-28T22:23:23.131Z,4.18
2022-11-28T22:25:53.483Z,4.53
2022-11-28T22:28:29.773Z,5.65
2022-11-28T22:31:02.360Z,4.55
2022-11-28T22:33:35.368Z,4.55
2022-11-28T22:36:11.201Z,4.82
2022-11-28T22:38:39.330Z,5.60
2022-11-28T22:41:11.259Z,4.80
2022-11-28T22:43:40.957Z,6.18
2022-11-28T22:46:14.566Z,5.78
2022-11-28T22:48:47.412Z,5.15
2022-11-28T22:51:18.972Z,5.85
2022-11-28T22:53:48.695Z,5.55
2022-11-28T22:56:21.799Z,5.70
2022-11-28T22:58:49.180Z,4.97
2022-11-28T23:01:27.022Z,5.63
2022-11-28T23:03:58.443Z,4.95
2022-11-28T23:06:33.020Z,6.43
2022-11-28T23:09:04.467Z,5.55
2022-11-28T23:11:35.976Z,4.25
2022-11-28T23:14:09.845Z,5.72
2022-11-28T23:16:44.387Z,6.15
2022-11-28T23:19:20.454Z,5.90
2022-11-28T23:21:52.244Z,5.50
2022-11-28T23:24:24.159Z,5.00
2022-11-28T23:26:55.293Z,5.32
2022-11-28T23:29:23.057Z,5.20
2022-11-28T23:31:57.541Z,5.10
2022-11-28T23:34:30.099Z,6.72
2022-11-28T23:37:09.898Z,4.93
2022-11-28T23:39:38.764Z,5.15
2022-11-28T23:42:10.656Z,5.78
2022-11-28T23:44:47.445Z,4.25
2022-11-28T23:47:17.140Z,4.40
2022-11-28T23:49:47.228Z,5.10
2022-11-28T23:52:17.454Z,4.22
2022-11-28T23:54:44.718Z,4.88
2022-11-28T23:57:12.340Z,4.78
2022-11-28T23:59:39.490Z,5.22
